Time;durP1;ratioP1;P1;durP2;ratioP2;P2;SDS_P1;SDS_P2;PMS_P1;PMS_P2;Temp;Humidity;BMP_temperature;BMP_pressure;BME280_temperature;BME280_humidity;BME280_pressure;Samples;Min_cycle;Max_cycle;Signal;HPM_P1;HPM_P2
2022/11/09 00:01:40;;;;;;;5.03;0.82;;;12.00;99.90;;;;;;4223426;28;20055;-89
2022/11/09 00:03:43;;;;;;;1.58;0.73;;;12.00;99.90;;;;;;4198197;28;20538;-89
2022/11/09 00:05:56;;;;;;;3.85;1.20;;;12.00;99.90;;;;;;4214960;28;20040;-89
2022/11/09 00:07:57;;;;;;;1.73;0.90;;;12.00;99.90;;;;;;4244842;28;20479;-89
2022/11/09 00:09:58;;;;;;;5.47;1.35;;;12.00;99.90;;;;;;4230786;28;20072;-89
2022/11/09 00:12:03;;;;;;;2.03;0.88;;;12.00;99.90;;;;;;4230576;28;20495;-89
2022/11/09 00:14:05;;;;;;;2.30;0.90;;;12.00;99.90;;;;;;4231043;28;20055;-89
2022/11/09 00:16:07;;;;;;;7.63;1.17;;;12.00;99.90;;;;;;4247936;28;20031;-89
2022/11/09 00:18:08;;;;;;;2.13;1.00;;;12.00;99.90;;;;;;4206080;28;20119;-89
2022/11/09 00:20:09;;;;;;;1.55;1.40;;;12.00;99.90;;;;;;4249156;28;20039;-89
2022/11/09 00:22:11;;;;;;;4.95;1.58;;;12.00;99.90;;;;;;4230243;28;20039;-89
2022/11/09 00:24:11;;;;;;;6.47;1.90;;;12.00;99.90;;;;;;4248745;28;20472;-88
2022/11/09 00:26:14;;;;;;;7.00;2.40;;;12.10;99.90;;;;;;4231056;28;20051;-89
2022/11/09 00:28:16;;;;;;;5.60;1.33;;;12.10;99.90;;;;;;4232115;28;20044;-89
2022/11/09 00:30:17;;;;;;;6.57;1.30;;;12.00;99.90;;;;;;4252891;27;20046;-88
2022/11/09 00:32:18;;;;;;;3.65;1.73;;;12.00;99.90;;;;;;4252472;27;20039;-89
2022/11/09 00:34:19;;;;;;;6.03;1.23;;;12.00;99.90;;;;;;4234843;28;20071;-89
2022/11/09 00:36:20;;;;;;;5.45;1.38;;;12.00;99.90;;;;;;4218746;28;20048;-89
2022/11/09 00:38:21;;;;;;;2.58;1.17;;;12.00;99.90;;;;;;4217737;28;20052;-88
2022/11/09 00:40:22;;;;;;;2.97;1.20;;;12.00;99.90;;;;;;4218852;28;20048;-89
2022/11/09 00:42:23;;;;;;;3.03;1.20;;;12.00;99.90;;;;;;4219553;28;20097;-89
2022/11/09 00:44:23;;;;;;;3.75;1.10;;;12.00;99.90;;;;;;4250748;28;20028;-89
2022/11/09 00:46:24;;;;;;;2.38;1.10;;;12.10;99.90;;;;;;4270280;27;20031;-89
2022/11/09 00:48:25;;;;;;;1.65;0.80;;;13.00;99.90;;;;;;4252288;28;20035;-88
2022/11/09 00:50:26;;;;;;;3.15;0.98;;;12.00;99.90;;;;;;4247183;28;20036;-88
2022/11/09 00:52:28;;;;;;;5.88;1.73;;;12.10;99.90;;;;;;4250160;28;20141;-89
2022/11/09 00:54:29;;;;;;;4.18;1.63;;;12.10;99.90;;;;;;4227845;28;20048;-89
2022/11/09 00:56:30;;;;;;;6.10;2.15;;;12.10;99.90;;;;;;4217761;28;20158;-89
2022/11/09 00:58:32;;;;;;;4.18;1.40;;;12.10;99.90;;;;;;4253824;27;20043;-88
2022/11/09 01:00:34;;;;;;;4.15;1.73;;;12.10;99.90;;;;;;4253386;27;20049;-90
2022/11/09 01:02:34;;;;;;;8.07;1.77;;;12.20;99.90;;;;;;4234794;28;20044;-88
2022/11/09 01:04:35;;;;;;;6.65;1.75;;;11.90;99.90;;;;;;4234483;28;20096;-89
2022/11/09 01:06:36;;;;;;;4.32;1.63;;;12.20;99.90;;;;;;4240119;27;20046;-90
2022/11/09 01:08:37;;;;;;;3.15;1.50;;;12.20;99.90;;;;;;4229654;28;20407;-89
2022/11/09 01:10:46;;;;;;;3.92;1.80;;;12.30;99.90;;;;;;4234099;28;20039;-88
2022/11/09 01:12:46;;;;;;;4.40;1.45;;;12.30;99.90;;;;;;4233589;28;20103;-89
2022/11/09 01:14:47;;;;;;;7.20;1.80;;;12.30;99.90;;;;;;4214524;28;20105;-89
2022/11/09 01:16:48;;;;;;;3.90;1.25;;;12.40;99.90;;;;;;4242936;27;20104;-89
2022/11/09 01:18:59;;;;;;;7.65;1.58;;;11.50;99.90;;;;;;4200372;28;20544;-89
2022/11/09 01:21:02;;;;;;;6.43;1.77;;;11.90;99.90;;;;;;4232519;28;20487;-88
2022/11/09 01:23:04;;;;;;;4.88;1.25;;;12.40;99.90;;;;;;4250226;27;20479;-89
2022/11/09 01:25:06;;;;;;;4.28;1.60;;;12.40;99.90;;;;;;4248703;27;20042;-88
2022/11/09 01:27:09;;;;;;;5.00;1.55;;;12.40;99.90;;;;;;4235422;27;20408;-88
2022/11/09 01:29:11;;;;;;;4.35;1.33;;;12.40;99.90;;;;;;4211072;28;20455;-89
2022/11/09 01:31:17;;;;;;;5.38;1.50;;;12.40;99.90;;;;;;4203000;28;20118;-89
2022/11/09 01:33:17;;;;;;;5.47;1.42;;;12.40;99.90;;;;;;4249512;27;20511;-89
2022/11/09 01:35:18;;;;;;;3.67;1.42;;;12.40;99.90;;;;;;4214619;28;20059;-89
2022/11/09 01:37:19;;;;;;;7.53;1.45;;;12.40;99.90;;;;;;4225538;28;20051;-89
2022/11/09 01:39:20;;;;;;;6.47;1.50;;;11.90;99.90;;;;;;4232130;28;20048;-89
2022/11/09 01:41:25;;;;;;;8.35;1.65;;;12.50;99.90;;;;;;4247446;27;20097;-90
2022/11/09 01:43:27;;;;;;;5.47;1.42;;;12.40;99.90;;;;;;4248303;27;20128;-89
2022/11/09 01:45:29;;;;;;;6.65;1.30;;;12.50;99.90;;;;;;4217360;28;20040;-89
2022/11/09 01:47:31;;;;;;;4.78;1.42;;;12.70;99.90;;;;;;4214525;28;20040;-89
2022/11/09 01:49:47;;;;;;;2.28;1.25;;;12.90;99.90;;;;;;4222583;28;20418;-88
2022/11/09 01:52:03;;;;;;;6.15;1.85;;;14.00;99.90;;;;;;4249540;27;20039;-89
2022/11/09 01:54:14;;;;;;;5.07;1.20;;;13.90;99.90;;;;;;4249403;27;20051;-88
2022/11/09 01:56:17;;;;;;;5.95;1.90;;;13.00;99.90;;;;;;4249348;27;20088;-89
2022/11/09 01:58:27;;;;;;;5.72;1.23;;;12.80;99.90;;;;;;4249708;27;20448;-89
2022/11/09 02:00:28;;;;;;;5.30;1.35;;;13.00;99.90;;;;;;4213211;28;20051;-88
2022/11/09 02:02:30;;;;;;;5.07;1.80;;;12.70;99.90;;;;;;4242784;27;20110;-89
2022/11/09 02:04:42;;;;;;;10.02;1.70;;;13.30;99.90;;;;;;4229163;28;20047;-89
2022/11/09 02:06:44;;;;;;;9.95;1.75;;;13.40;99.90;;;;;;4205850;28;20036;-89
2022/11/09 02:08:46;;;;;;;8.05;1.55;;;12.60;99.90;;;;;;4220276;28;20534;-88
2022/11/09 02:11:05;;;;;;;5.32;1.75;;;12.60;99.90;;;;;;4204495;28;20063;-88
2022/11/09 02:13:09;;;;;;;6.50;1.67;;;12.80;99.90;;;;;;4208182;28;20067;-89
2022/11/09 02:15:12;;;;;;;6.78;1.90;;;12.80;99.90;;;;;;4236997;28;20051;-89
2022/11/09 02:17:12;;;;;;;11.15;2.85;;;12.50;99.90;;;;;;4252903;27;20050;-89
2022/11/09 02:19:13;;;;;;;10.57;2.17;;;11.10;99.90;;;;;;4249954;27;20043;-89
2022/11/09 02:21:14;;;;;;;4.97;1.33;;;12.40;99.90;;;;;;4238648;28;20036;-89
2022/11/09 02:23:15;;;;;;;9.25;1.80;;;13.20;99.90;;;;;;4237058;28;20082;-89
2022/11/09 02:25:17;;;;;;;5.15;1.30;;;12.70;99.90;;;;;;4220392;28;20082;-89
2022/11/09 02:27:19;;;;;;;5.15;2.08;;;12.80;99.90;;;;;;4237527;28;20054;-90
2022/11/09 02:29:43;;;;;;;4.45;1.50;;;12.70;99.90;;;;;;4232873;28;20043;-88
2022/11/09 02:31:51;;;;;;;8.35;1.65;;;11.10;99.90;;;;;;4232661;28;20468;-88
2022/11/09 02:34:03;;;;;;;9.52;1.50;;;12.60;99.90;;;;;;4232449;28;20055;-87
2022/11/09 02:36:04;;;;;;;8.45;1.40;;;12.30;99.90;;;;;;4227133;28;20060;-87
2022/11/09 02:38:08;;;;;;;8.02;1.73;;;12.50;99.90;;;;;;4229990;28;20043;-87
2022/11/09 02:40:18;;;;;;;8.93;1.58;;;12.30;99.90;;;;;;4248336;27;20047;-88
2022/11/09 02:42:19;;;;;;;5.93;1.92;;;12.50;99.90;;;;;;4230948;28;20047;-87
2022/11/09 02:44:22;;;;;;;9.27;1.92;;;12.50;99.90;;;;;;4248254;27;20043;-87
2022/11/09 02:46:34;;;;;;;4.45;1.55;;;12.50;99.90;;;;;;4247808;27;20043;-87
2022/11/09 02:48:35;;;;;;;7.68;1.33;;;12.50;99.90;;;;;;4229984;28;20488;-87
2022/11/09 02:50:36;;;;;;;4.32;1.17;;;11.80;99.90;;;;;;4229923;28;20051;-87
2022/11/09 02:52:37;;;;;;;15.07;2.25;;;12.60;99.90;;;;;;4226391;28;20086;-87
2022/11/09 02:54:38;;;;;;;3.70;1.35;;;13.70;99.90;;;;;;4229091;28;20036;-87
2022/11/09 02:56:39;;;;;;;7.00;1.80;;;12.30;99.90;;;;;;4230085;28;20054;-87
2022/11/09 02:58:40;;;;;;;12.82;2.58;;;12.50;99.90;;;;;;4230188;28;20051;-88
2022/11/09 03:00:40;;;;;;;12.95;1.60;;;12.50;99.90;;;;;;4229644;28;20478;-88
2022/11/09 03:02:41;;;;;;;9.30;1.63;;;12.50;99.90;;;;;;4234254;27;20475;-87
2022/11/09 03:04:42;;;;;;;5.25;1.10;;;12.20;99.90;;;;;;4241127;27;20543;-86
2022/11/09 03:06:43;;;;;;;7.70;1.83;;;12.60;99.90;;;;;;4230928;28;20168;-87
2022/11/09 03:08:43;;;;;;;7.20;1.70;;;13.30;99.90;;;;;;4249156;27;20058;-87
2022/11/09 03:10:44;;;;;;;5.70;1.48;;;12.50;99.90;;;;;;4238906;27;20039;-87
2022/11/09 03:12:45;;;;;;;8.55;1.98;;;12.20;99.90;;;;;;4233006;28;20446;-88
2022/11/09 03:14:45;;;;;;;6.63;1.83;;;13.80;99.90;;;;;;4249593;27;20046;-87
2022/11/09 03:16:46;;;;;;;6.45;1.60;;;13.60;99.90;;;;;;4250152;27;20047;-87
2022/11/09 03:18:47;;;;;;;7.55;1.70;;;13.10;99.90;;;;;;4250744;27;20035;-87
2022/11/09 03:20:48;;;;;;;5.25;1.17;;;12.50;99.90;;;;;;4252478;27;20070;-87
2022/11/09 03:22:49;;;;;;;9.95;1.60;;;13.50;99.90;;;;;;4235751;28;20059;-87
2022/11/09 03:24:51;;;;;;;5.05;1.35;;;12.20;99.90;;;;;;4258090;27;20050;-86
2022/11/09 03:26:51;;;;;;;6.50;1.55;;;11.00;99.90;;;;;;4259008;27;20051;-87
2022/11/09 03:28:52;;;;;;;4.07;1.30;;;12.20;99.90;;;;;;4246989;27;20387;-87
2022/11/09 03:30:53;;;;;;;6.50;1.40;;;12.80;99.90;;;;;;4244422;27;20039;-87
2022/11/09 03:33:01;;;;;;;13.00;3.50;;;12.20;99.90;;;;;;4238989;28;20067;-88
2022/11/09 03:35:02;;;;;;;10.30;1.35;;;12.40;99.90;;;;;;4259498;28;20053;-87
2022/11/09 03:37:03;;;;;;;6.63;1.42;;;12.40;99.90;;;;;;4259640;28;20040;-87
2022/11/09 03:39:03;;;;;;;10.27;2.85;;;12.20;99.90;;;;;;4239498;28;20043;-88
2022/11/09 03:41:04;;;;;;;5.00;2.22;;;12.10;99.90;;;;;;4256840;28;20035;-86
2022/11/09 03:43:05;;;;;;;5.25;1.50;;;12.40;99.90;;;;;;4229513;28;20558;-87
2022/11/09 03:45:06;;;;;;;6.43;1.45;;;12.50;99.90;;;;;;4247539;28;20099;-87
2022/11/09 03:47:07;;;;;;;7.82;1.80;;;13.10;99.90;;;;;;4218512;28;20126;-87
2022/11/09 03:49:08;;;;;;;11.70;1.05;;;12.40;99.90;;;;;;4231271;28;20047;-87
2022/11/09 03:51:09;;;;;;;7.25;1.35;;;12.20;99.90;;;;;;4195874;28;20083;-86
2022/11/09 03:53:10;;;;;;;4.95;1.25;;;12.80;99.90;;;;;;4243990;28;20035;-87
2022/11/09 03:55:12;;;;;;;10.18;1.60;;;12.40;99.90;;;;;;4247813;28;20089;-87
2022/11/09 03:57:14;;;;;;;8.82;1.77;;;12.40;99.90;;;;;;4247792;28;20095;-87
2022/11/09 03:59:15;;;;;;;8.55;1.60;;;12.10;99.90;;;;;;4228840;28;20051;-87
2022/11/09 04:01:15;;;;;;;8.85;1.25;;;12.00;99.90;;;;;;4244271;28;20049;-86
2022/11/09 04:03:17;;;;;;;9.50;1.27;;;12.40;99.90;;;;;;4249718;27;20047;-87
2022/11/09 04:05:18;;;;;;;9.00;1.25;;;11.90;99.90;;;;;;4212647;28;20432;-86
2022/11/09 04:07:19;;;;;;;10.98;1.50;;;12.00;99.90;;;;;;4241189;27;20039;-87
2022/11/09 04:09:20;;;;;;;4.68;1.70;;;11.60;99.90;;;;;;4251465;27;20141;-88
2022/11/09 04:11:21;;;;;;;5.50;1.55;;;12.30;99.90;;;;;;4232486;28;20058;-88
2022/11/09 04:13:22;;;;;;;14.82;1.20;;;12.30;99.90;;;;;;4251027;27;20467;-87
2022/11/09 04:15:22;;;;;;;5.00;1.30;;;12.30;99.90;;;;;;4232797;28;20495;-87
2022/11/09 04:17:23;;;;;;;10.70;2.38;;;12.00;99.90;;;;;;4236211;28;20507;-86
2022/11/09 04:19:24;;;;;;;13.52;2.25;;;12.60;99.90;;;;;;4237922;28;20050;-87
2022/11/09 04:21:26;;;;;;;6.53;1.30;;;12.30;99.90;;;;;;4257227;27;20062;-86
2022/11/09 04:23:26;;;;;;;12.13;2.53;;;12.50;99.90;;;;;;4253639;27;20035;-87
2022/11/09 04:25:31;;;;;;;9.68;1.48;;;12.10;99.90;;;;;;4247186;27;20031;-87
2022/11/09 04:27:32;;;;;;;8.38;1.38;;;12.10;99.90;;;;;;4255065;27;20043;-87
2022/11/09 04:29:33;;;;;;;10.50;2.33;;;12.50;99.90;;;;;;4256327;27;20057;-87
2022/11/09 04:31:34;;;;;;;10.77;1.80;;;12.30;99.90;;;;;;4237003;28;20051;-87
2022/11/09 04:33:34;;;;;;;8.45;1.63;;;10.60;99.90;;;;;;4252986;27;20055;-87
2022/11/09 04:35:35;;;;;;;7.80;1.42;;;12.30;99.90;;;;;;4251262;27;20526;-86
2022/11/09 04:37:36;;;;;;;8.40;1.08;;;12.20;99.90;;;;;;4250773;27;20043;-87
2022/11/09 04:39:37;;;;;;;8.25;1.70;;;12.00;99.90;;;;;;4246409;27;20032;-87
2022/11/09 04:41:38;;;;;;;5.32;1.30;;;12.70;99.90;;;;;;4240866;27;20046;-88
2022/11/09 04:43:39;;;;;;;7.53;1.67;;;12.50;99.90;;;;;;4251198;27;20050;-87
2022/11/09 04:45:40;;;;;;;9.02;1.70;;;12.20;99.90;;;;;;4240894;27;20040;-87
2022/11/09 04:47:40;;;;;;;6.80;1.63;;;11.90;99.90;;;;;;4250920;27;20047;-87
2022/11/09 04:49:41;;;;;;;5.60;1.10;;;12.20;99.90;;;;;;4250729;27;20494;-87
2022/11/09 04:51:42;;;;;;;10.57;1.50;;;12.00;99.90;;;;;;4250658;27;20045;-88
2022/11/09 04:53:42;;;;;;;6.18;1.50;;;12.20;99.90;;;;;;4232174;28;20063;-86
2022/11/09 04:55:43;;;;;;;13.18;1.67;;;12.10;99.90;;;;;;4215432;28;20449;-86
2022/11/09 04:57:45;;;;;;;7.97;1.08;;;12.80;99.90;;;;;;4250161;27;20039;-86
2022/11/09 04:59:47;;;;;;;4.25;1.20;;;12.40;99.90;;;;;;4227306;28;20051;-87
2022/11/09 05:01:47;;;;;;;9.55;1.85;;;12.30;99.90;;;;;;4250407;27;20046;-86
2022/11/09 05:03:49;;;;;;;10.52;1.70;;;12.30;99.90;;;;;;4250995;27;20475;-87
2022/11/09 05:05:50;;;;;;;5.03;1.38;;;12.10;99.90;;;;;;4232434;28;20531;-86
2022/11/09 05:07:51;;;;;;;13.35;1.92;;;12.10;99.90;;;;;;4231854;28;20055;-87
2022/11/09 05:09:51;;;;;;;8.27;1.10;;;12.00;99.90;;;;;;4231890;28;20122;-87
2022/11/09 05:11:52;;;;;;;8.55;2.17;;;12.00;99.90;;;;;;4250256;27;20050;-86
2022/11/09 05:13:53;;;;;;;9.13;1.63;;;12.20;99.90;;;;;;4250511;27;20047;-86
2022/11/09 05:15:59;;;;;;;7.95;1.52;;;13.20;99.90;;;;;;4222309;28;20055;-87
2022/11/09 05:18:00;;;;;;;7.22;1.52;;;12.20;99.90;;;;;;4249890;27;20043;-87
2022/11/09 05:20:02;;;;;;;12.13;2.58;;;12.10;99.90;;;;;;4249108;27;20043;-86
2022/11/09 05:24:29;;;;;;;5.00;1.38;;;12.00;99.90;;;;;;4233984;27;20082;-87
2022/11/09 05:26:38;;;;;;;10.30;1.52;;;13.20;99.90;;;;;;4249448;27;20043;-87
2022/11/09 05:28:38;;;;;;;7.00;1.33;;;12.20;99.90;;;;;;4231325;28;20091;-86
2022/11/09 05:30:39;;;;;;;8.65;1.27;;;12.00;99.90;;;;;;4227908;28;20094;-86
2022/11/09 05:32:40;;;;;;;20.05;2.22;;;12.20;99.90;;;;;;4216328;28;20093;-87
2022/11/09 05:34:41;;;;;;;6.05;1.73;;;11.90;99.90;;;;;;4233259;28;20032;-86
2022/11/09 05:36:43;;;;;;;5.70;1.40;;;12.10;99.90;;;;;;4215626;28;20114;-87
2022/11/09 05:38:44;;;;;;;7.60;1.85;;;11.90;99.90;;;;;;4249325;27;20429;-87
2022/11/09 05:40:50;;;;;;;7.07;1.55;;;12.10;99.90;;;;;;4231585;28;20057;-87
2022/11/09 05:42:50;;;;;;;6.32;1.80;;;12.10;99.90;;;;;;4231470;28;20060;-87
2022/11/09 05:44:51;;;;;;;9.20;2.55;;;11.90;99.90;;;;;;4231336;28;20043;-87
2022/11/09 05:46:53;;;;;;;4.55;1.15;;;11.90;99.90;;;;;;4249655;27;20132;-87
2022/11/09 05:48:54;;;;;;;3.35;1.00;;;12.40;99.90;;;;;;4230695;28;20048;-85
2022/11/09 05:51:01;;;;;;;7.68;1.48;;;12.60;99.90;;;;;;4230797;28;20047;-86
2022/11/09 05:53:01;;;;;;;5.10;1.67;;;11.90;99.90;;;;;;4231271;28;20083;-86
2022/11/09 05:55:02;;;;;;;8.43;0.95;;;11.80;99.90;;;;;;4236914;27;20030;-86
2022/11/09 05:57:03;;;;;;;9.32;1.40;;;12.00;99.90;;;;;;4230993;28;20048;-86
2022/11/09 05:59:04;;;;;;;23.90;1.92;;;12.40;99.90;;;;;;4210305;28;20140;-87
2022/11/09 06:01:08;;;;;;;5.93;1.52;;;11.90;99.90;;;;;;4222455;28;20056;-87
2022/11/09 06:03:10;;;;;;;8.00;1.63;;;12.10;99.90;;;;;;4216075;28;20443;-87
2022/11/09 06:05:11;;;;;;;9.23;1.92;;;12.10;99.90;;;;;;4239783;27;20449;-87
2022/11/09 06:07:12;;;;;;;5.28;1.73;;;12.00;99.90;;;;;;4239019;27;20092;-85
2022/11/09 06:09:12;;;;;;;8.13;1.58;;;12.20;99.90;;;;;;4250320;27;20440;-86
2022/11/09 06:11:14;;;;;;;4.15;1.38;;;12.70;99.90;;;;;;4249602;27;20046;-87
2022/11/09 06:13:15;;;;;;;8.10;1.70;;;12.10;99.90;;;;;;4214026;28;20139;-87
2022/11/09 06:15:16;;;;;;;9.27;1.75;;;11.90;99.90;;;;;;4249771;27;20529;-88
2022/11/09 06:17:16;;;;;;;7.43;1.63;;;12.00;99.90;;;;;;4250001;27;20047;-86
2022/11/09 06:19:17;;;;;;;11.95;1.42;;;12.10;99.90;;;;;;4230964;28;20111;-86
2022/11/09 06:21:19;;;;;;;6.63;1.15;;;12.10;99.90;;;;;;4248527;27;20035;-86
2022/11/09 06:23:24;;;;;;;6.63;1.25;;;12.20;99.90;;;;;;4249164;27;20051;-87
2022/11/09 06:25:26;;;;;;;5.85;1.55;;;12.00;99.90;;;;;;4224654;28;20040;-85
2022/11/09 06:27:27;;;;;;;8.07;1.85;;;12.00;99.90;;;;;;4233321;28;20122;-87
2022/11/09 06:29:28;;;;;;;9.57;1.35;;;12.10;99.90;;;;;;4213561;28;20097;-86
2022/11/09 06:31:29;;;;;;;6.70;1.98;;;11.80;99.90;;;;;;4225410;28;20564;-87
2022/11/09 06:33:31;;;;;;;7.18;1.30;;;12.00;99.90;;;;;;4248943;27;20043;-87
2022/11/09 06:35:31;;;;;;;6.88;1.92;;;13.00;99.90;;;;;;4249609;27;20052;-87
2022/11/09 06:37:33;;;;;;;6.60;1.70;;;11.90;99.90;;;;;;4230636;28;20091;-88
2022/11/09 06:39:34;;;;;;;5.15;1.42;;;12.00;99.90;;;;;;4230603;28;20075;-86
2022/11/09 06:41:35;;;;;;;7.97;1.90;;;12.00;99.90;;;;;;4231154;27;20058;-85
2022/11/09 06:43:35;;;;;;;9.05;1.95;;;11.90;99.90;;;;;;4220205;28;20043;-85
2022/11/09 06:45:36;;;;;;;5.45;1.10;;;11.80;99.90;;;;;;4237267;27;20069;-86
2022/11/09 06:47:37;;;;;;;5.90;1.85;;;11.90;99.90;;;;;;4213057;28;20515;-86
2022/11/09 06:49:38;;;;;;;8.70;2.08;;;11.80;99.90;;;;;;4231518;28;20040;-86
2022/11/09 06:51:38;;;;;;;4.82;1.52;;;11.70;99.90;;;;;;4232248;27;20043;-87
2022/11/09 06:53:40;;;;;;;12.40;1.73;;;13.20;99.90;;;;;;4230289;28;20066;-87
2022/11/09 06:55:41;;;;;;;10.05;1.63;;;11.90;99.90;;;;;;4212919;28;20043;-86
2022/11/09 06:57:41;;;;;;;8.63;1.40;;;11.80;99.90;;;;;;4247998;27;20042;-86
2022/11/09 06:59:42;;;;;;;11.30;2.28;;;11.90;99.90;;;;;;4226826;28;20054;-87
2022/11/09 07:01:44;;;;;;;6.68;1.48;;;11.70;99.90;;;;;;4231105;28;20040;-85
2022/11/09 07:03:45;;;;;;;5.72;1.55;;;11.70;99.90;;;;;;4216160;28;20048;-86
2022/11/09 07:05:46;;;;;;;9.65;1.60;;;13.00;99.90;;;;;;4247760;27;20094;-86
2022/11/09 07:07:48;;;;;;;8.52;1.48;;;11.80;99.90;;;;;;4247932;27;20396;-87
2022/11/09 07:09:49;;;;;;;5.72;1.38;;;12.10;99.90;;;;;;4247751;27;20104;-86
2022/11/09 07:11:51;;;;;;;9.15;1.70;;;11.80;99.90;;;;;;4213220;28;20575;-87
2022/11/09 07:13:51;;;;;;;7.20;1.63;;;11.80;99.90;;;;;;4247811;27;20130;-85
2022/11/09 07:15:53;;;;;;;11.90;1.98;;;11.60;99.90;;;;;;4247357;27;20483;-87
2022/11/09 07:17:59;;;;;;;8.23;1.48;;;11.80;99.90;;;;;;4247625;27;20046;-86
2022/11/09 07:20:00;;;;;;;6.63;1.52;;;11.60;99.90;;;;;;4235826;27;20061;-86
2022/11/09 07:22:01;;;;;;;4.18;1.27;;;11.90;99.90;;;;;;4241615;27;20031;-87
2022/11/09 07:24:02;;;;;;;5.80;1.25;;;11.70;99.90;;;;;;4218519;28;20153;-86
2022/11/09 07:26:03;;;;;;;13.45;1.70;;;11.60;99.90;;;;;;4244944;27;20099;-87
2022/11/09 07:28:07;;;;;;;12.25;1.90;;;11.80;99.90;;;;;;4232649;28;20039;-87
2022/11/09 07:30:09;;;;;;;4.65;1.27;;;11.70;99.90;;;;;;4232040;28;20081;-86
2022/11/09 07:32:10;;;;;;;9.57;1.70;;;12.00;99.90;;;;;;4214951;28;20052;-85
2022/11/09 07:34:10;;;;;;;9.13;1.30;;;11.70;99.90;;;;;;4221066;28;20090;-86
2022/11/09 07:36:11;;;;;;;13.27;1.92;;;12.10;99.90;;;;;;4232050;28;20051;-86
2022/11/09 07:38:18;;;;;;;7.20;1.92;;;11.90;99.90;;;;;;4244656;28;20494;-85
2022/11/09 07:40:19;;;;;;;9.73;1.13;;;13.10;99.90;;;;;;4240753;28;20040;-87
2022/11/09 07:42:20;;;;;;;4.65;0.93;;;12.00;99.90;;;;;;4229463;28;20051;-85
2022/11/09 07:44:21;;;;;;;3.65;1.15;;;11.80;99.90;;;;;;4213668;28;20404;-84
2022/11/09 07:46:22;;;;;;;11.27;1.40;;;11.80;99.90;;;;;;4239308;28;20071;-86
2022/11/09 07:48:23;;;;;;;8.00;1.33;;;11.80;99.90;;;;;;4231273;28;20126;-87
2022/11/09 07:50:25;;;;;;;5.38;1.05;;;12.00;99.90;;;;;;4199278;28;20105;-86
2022/11/09 07:52:26;;;;;;;4.60;1.20;;;12.00;99.90;;;;;;4222380;28;20492;-86
2022/11/09 07:54:26;;;;;;;7.70;1.13;;;11.80;99.90;;;;;;4231572;28;20040;-87
2022/11/09 07:56:28;;;;;;;10.50;1.73;;;11.90;99.90;;;;;;4231479;28;20067;-87
2022/11/09 07:58:31;;;;;;;5.63;1.42;;;11.90;99.90;;;;;;4214697;28;20514;-86
2022/11/09 08:00:33;;;;;;;11.85;1.10;;;12.00;99.90;;;;;;4214502;28;20170;-87
2022/11/09 08:02:34;;;;;;;8.52;1.90;;;12.40;99.90;;;;;;4232386;28;20044;-86
2022/11/09 08:04:35;;;;;;;6.95;1.67;;;11.90;99.90;;;;;;4223010;28;20048;-86
2022/11/09 08:06:35;;;;;;;8.65;1.25;;;12.00;99.90;;;;;;4249318;28;20096;-86
2022/11/09 08:08:36;;;;;;;5.57;1.30;;;12.20;99.90;;;;;;4232453;28;20118;-86
2022/11/09 08:10:38;;;;;;;14.60;1.30;;;12.30;99.90;;;;;;4207634;28;20044;-86
2022/11/09 08:12:39;;;;;;;10.90;1.35;;;12.20;99.90;;;;;;4214910;28;20499;-87
2022/11/09 08:14:40;;;;;;;9.60;2.72;;;12.30;99.90;;;;;;4249707;28;20206;-87
2022/11/09 08:16:40;;;;;;;7.25;1.52;;;12.30;99.90;;;;;;4231111;28;20152;-87
2022/11/09 08:18:41;;;;;;;6.78;1.92;;;12.10;99.90;;;;;;4230194;28;20512;-87
2022/11/09 08:20:43;;;;;;;8.07;1.15;;;12.40;99.90;;;;;;4230550;28;20103;-85
2022/11/09 08:22:46;;;;;;;8.07;1.88;;;12.50;99.90;;;;;;4249935;28;20043;-85
2022/11/09 08:24:47;;;;;;;5.95;1.55;;;12.50;99.90;;;;;;4231710;28;20058;-87
2022/11/09 08:26:47;;;;;;;6.88;1.55;;;11.60;99.90;;;;;;4250274;28;20054;-87
2022/11/09 08:28:48;;;;;;;11.77;1.63;;;12.60;99.90;;;;;;4249560;28;20036;-87
2022/11/09 08:30:58;;;;;;;7.05;1.88;;;12.70;99.90;;;;;;4231762;28;20051;-87
2022/11/09 08:33:00;;;;;;;6.47;1.60;;;13.30;99.90;;;;;;4249406;28;20055;-87
2022/11/09 08:35:01;;;;;;;9.25;1.42;;;13.50;99.90;;;;;;4249121;28;20042;-86
2022/11/09 08:37:04;;;;;;;8.45;1.40;;;14.30;99.90;;;;;;4250135;28;20043;-86
2022/11/09 08:39:04;;;;;;;6.20;1.30;;;14.80;99.90;;;;;;4250105;28;20380;-86
2022/11/09 08:41:07;;;;;;;9.88;1.90;;;15.00;99.90;;;;;;4250150;28;20051;-86
2022/11/09 08:43:10;;;;;;;3.85;0.90;;;15.70;99.90;;;;;;4231963;28;20117;-86
2022/11/09 08:45:11;;;;;;;6.53;1.20;;;16.00;99.90;;;;;;4248755;28;20043;-87
2022/11/09 08:47:12;;;;;;;13.13;1.85;;;16.40;99.90;;;;;;4249207;28;20043;-87
2022/11/09 08:49:14;;;;;;;7.68;2.05;;;16.50;99.90;;;;;;4249608;27;20036;-87
2022/11/09 08:51:15;;;;;;;13.65;1.42;;;16.90;99.90;;;;;;4217602;28;20063;-87
2022/11/09 08:53:16;;;;;;;5.18;0.98;;;17.20;99.90;;;;;;4252023;27;20043;-87
2022/11/09 08:55:17;;;;;;;4.32;1.10;;;17.70;99.90;;;;;;4216669;28;20450;-88
2022/11/09 08:57:18;;;;;;;6.00;1.85;;;18.00;99.90;;;;;;4233301;28;20155;-87
2022/11/09 08:59:19;;;;;;;8.52;1.70;;;17.60;99.90;;;;;;4232458;28;20085;-88
2022/11/09 09:01:20;;;;;;;8.77;1.30;;;17.90;99.90;;;;;;4232638;28;20076;-88
2022/11/09 09:03:21;;;;;;;5.25;1.25;;;17.90;99.90;;;;;;4232646;28;20036;-88
2022/11/09 09:05:22;;;;;;;6.53;2.08;;;17.80;99.90;;;;;;4233343;28;20035;-86
2022/11/09 09:07:22;;;;;;;8.38;1.50;;;18.30;99.90;;;;;;4244524;27;20387;-86
2022/11/09 09:09:23;;;;;;;6.97;1.10;;;18.20;99.90;;;;;;4234422;28;20028;-87
2022/11/09 09:11:24;;;;;;;7.20;1.00;;;18.60;99.90;;;;;;4253899;27;20082;-87
2022/11/09 09:13:25;;;;;;;7.80;1.27;;;18.50;99.90;;;;;;4250801;27;20047;-87
2022/11/09 09:15:25;;;;;;;3.55;1.05;;;17.70;99.70;;;;;;4255130;27;20035;-88
2022/11/09 09:17:26;;;;;;;9.00;1.17;;;18.50;99.90;;;;;;4233886;28;20047;-87
2022/11/09 09:19:29;;;;;;;8.45;1.15;;;17.20;99.90;;;;;;4217339;28;20048;-87
2022/11/09 09:21:30;;;;;;;10.52;2.53;;;18.40;99.90;;;;;;4222093;28;20104;-87
2022/11/09 09:23:31;;;;;;;12.95;2.08;;;18.80;99.90;;;;;;4251944;27;20079;-88
2022/11/09 09:25:32;;;;;;;6.85;1.30;;;18.50;99.90;;;;;;4252920;27;20054;-87
2022/11/09 09:27:33;;;;;;;5.85;1.75;;;18.50;99.70;;;;;;4259520;27;20047;-87
2022/11/09 09:29:33;;;;;;;7.32;1.70;;;18.90;99.80;;;;;;4257694;27;20035;-86
2022/11/09 09:31:34;;;;;;;7.13;1.10;;;19.30;99.70;;;;;;4240768;28;20090;-86
2022/11/09 09:33:36;;;;;;;6.03;1.20;;;19.10;99.40;;;;;;4244958;28;20075;-87
2022/11/09 09:35:37;;;;;;;7.25;1.83;;;18.80;99.00;;;;;;4258400;27;20136;-88
2022/11/09 09:37:37;;;;;;;7.75;1.10;;;18.40;99.30;;;;;;4258971;27;20507;-86
2022/11/09 09:39:38;;;;;;;6.47;1.30;;;18.40;99.50;;;;;;4252449;27;20035;-87
2022/11/09 09:41:50;;;;;;;8.93;1.42;;;17.90;99.70;;;;;;4215383;28;20040;-89
2022/11/09 09:43:55;;;;;;;5.25;1.10;;;17.70;99.30;;;;;;4246934;27;20043;-87
2022/11/09 09:45:58;;;;;;;9.20;1.98;;;17.50;99.40;;;;;;4236556;27;20479;-87
2022/11/09 09:48:25;;;;;;;10.13;1.67;;;17.10;99.90;;;;;;4216562;28;20078;-87
2022/11/09 09:50:38;;;;;;;4.90;1.40;;;17.10;99.90;;;;;;4255579;27;20039;-90
2022/11/09 09:52:44;;;;;;;9.50;1.52;;;16.60;99.90;;;;;;4237299;28;20167;-89
2022/11/09 09:55:01;;;;;;;13.15;1.80;;;16.50;99.90;;;;;;4240782;28;20106;-89
2022/11/09 09:57:02;;;;;;;6.72;1.50;;;16.50;99.90;;;;;;4251668;28;20062;-89
2022/11/09 09:59:12;;;;;;;5.32;1.38;;;16.40;99.90;;;;;;4251704;28;20062;-90
2022/11/09 10:01:18;;;;;;;4.88;1.10;;;16.20;99.90;;;;;;4250091;28;20044;-89
2022/11/09 10:03:20;;;;;;;9.75;1.65;;;16.20;99.90;;;;;;4268776;27;20035;-89
2022/11/09 10:05:28;;;;;;;4.72;1.52;;;16.30;99.90;;;;;;4231102;28;20135;-89
2022/11/09 10:08:04;;;;;;;8.70;1.35;;;16.30;99.90;;;;;;4237556;28;20114;-90
2022/11/09 10:10:24;;;;;;;6.03;1.13;;;16.10;99.90;;;;;;4234901;28;20503;-89
2022/11/09 10:12:55;;;;;;;9.25;1.65;;;15.90;99.90;;;;;;4241204;28;20107;-90
2022/11/09 10:15:10;;;;;;;5.32;1.40;;;15.80;99.90;;;;;;4228873;28;20048;-89
2022/11/09 10:17:33;;;;;;;10.82;1.75;;;15.70;99.90;;;;;;4261746;27;20050;-89
2022/11/09 10:19:57;;;;;;;8.82;1.50;;;15.70;99.90;;;;;;4265088;27;20050;-89
2022/11/09 10:22:27;;;;;;;5.75;1.15;;;15.80;99.90;;;;;;4263577;27;20049;-90
2022/11/09 10:24:50;;;;;;;11.00;2.75;;;15.90;99.90;;;;;;4242053;28;20051;-89
2022/11/09 10:26:55;;;;;;;6.75;1.55;;;15.90;99.90;;;;;;4237930;28;20081;-89
2022/11/09 10:29:00;;;;;;;4.85;1.30;;;15.80;99.90;;;;;;4241178;28;20047;-88
2022/11/09 10:31:02;;;;;;;7.50;1.40;;;15.60;99.90;;;;;;4223570;28;20066;-89
2022/11/09 10:33:18;;;;;;;7.47;1.58;;;15.60;99.90;;;;;;4232034;28;20055;-89
2022/11/09 10:35:29;;;;;;;5.47;1.77;;;15.70;99.90;;;;;;4214883;28;20084;-90
2022/11/09 10:37:39;;;;;;;4.55;1.13;;;15.70;99.90;;;;;;4215617;28;20059;-90
2022/11/09 10:39:54;;;;;;;5.70;1.83;;;15.60;99.90;;;;;;4215473;28;20076;-90
2022/11/09 10:41:54;;;;;;;7.30;1.70;;;15.50;99.90;;;;;;4215045;28;20116;-89